sensor_id;sensor_type;location;lat;lon;timestamp;temperature;humidity
71142;DHT22;58808;59.366;17.970;2023-04-24T00:01:47;7.30;99.90
71142;DHT22;58808;59.366;17.970;2023-04-24T00:04:13;7.30;99.90
71142;DHT22;58808;59.366;17.970;2023-04-24T00:06:42;7.40;99.90
71142;DHT22;58808;59.366;17.970;2023-04-24T00:09:08;7.40;99.90
71142;DHT22;58808;59.366;17.970;2023-04-24T00:11:35;7.40;99.90
71142;DHT22;58808;59.366;17.970;2023-04-24T00:14:01;7.30;99.90
71142;DHT22;58808;59.366;17.970;2023-04-24T00:16:27;7.40;99.90
71142;DHT22;58808;59.366;17.970;2023-04-24T00:18:53;7.40;99.90
71142;DHT22;58808;59.366;17.970;2023-04-24T00:21:19;7.40;99.90
71142;DHT22;58808;59.366;17.970;2023-04-24T00:23:46;7.30;99.90
71142;DHT22;58808;59.366;17.970;2023-04-24T00:26:11;7.40;99.90
71142;DHT22;58808;59.366;17.970;2023-04-24T00:28:37;7.40;99.90
71142;DHT22;58808;59.366;17.970;2023-04-24T00:31:03;7.30;99.90
71142;DHT22;58808;59.366;17.970;2023-04-24T00:33:29;7.20;99.90
71142;DHT22;58808;59.366;17.970;2023-04-24T00:35:54;7.30;99.90
71142;DHT22;58808;59.366;17.970;2023-04-24T00:38:20;7.30;99.90
71142;DHT22;58808;59.366;17.970;2023-04-24T00:40:47;7.40;99.90
71142;DHT22;58808;59.366;17.970;2023-04-24T00:43:13;7.50;99.90
71142;DHT22;58808;59.366;17.970;2023-04-24T00:45:39;7.60;99.90
71142;DHT22;58808;59.366;17.970;2023-04-24T00:48:05;7.70;99.90
71142;DHT22;58808;59.366;17.970;2023-04-24T00:50:32;7.80;99.90
71142;DHT22;58808;59.366;17.970;2023-04-24T00:52:57;7.70;99.90
71142;DHT22;58808;59.366;17.970;2023-04-24T00:55:24;7.80;99.90
71142;DHT22;58808;59.366;17.970;2023-04-24T00:57:50;7.80;99.90
71142;DHT22;58808;59.366;17.970;2023-04-24T01:00:16;7.70;99.90
71142;DHT22;58808;59.366;17.970;2023-04-24T01:02:44;7.80;99.90
71142;DHT22;58808;59.366;17.970;2023-04-24T01:05:11;7.60;99.90
71142;DHT22;58808;59.366;17.970;2023-04-24T01:07:39;7.30;99.90
71142;DHT22;58808;59.366;17.970;2023-04-24T01:10:07;7.30;99.90
71142;DHT22;58808;59.366;17.970;2023-04-24T01:12:33;7.40;99.90
71142;DHT22;58808;59.366;17.970;2023-04-24T01:14:59;7.20;99.90
71142;DHT22;58808;59.366;17.970;2023-04-24T01:17:25;7.30;99.90
71142;DHT22;58808;59.366;17.970;2023-04-24T01:19:51;7.40;99.90
71142;DHT22;58808;59.366;17.970;2023-04-24T01:22:22;7.50;99.90
71142;DHT22;58808;59.366;17.970;2023-04-24T01:24:48;7.50;99.90
71142;DHT22;58808;59.366;17.970;2023-04-24T01:27:14;7.40;99.90
71142;DHT22;58808;59.366;17.970;2023-04-24T01:29:41;7.50;99.90
71142;DHT22;58808;59.366;17.970;2023-04-24T01:32:07;7.50;99.90
71142;DHT22;58808;59.366;17.970;2023-04-24T01:34:32;7.40;99.90
71142;DHT22;58808;59.366;17.970;2023-04-24T01:36:58;7.40;99.90
71142;DHT22;58808;59.366;17.970;2023-04-24T01:39:24;7.50;99.90
71142;DHT22;58808;59.366;17.970;2023-04-24T01:41:51;7.50;99.90
71142;DHT22;58808;59.366;17.970;2023-04-24T01:44:18;7.50;99.90
71142;DHT22;58808;59.366;17.970;2023-04-24T01:46:44;7.60;99.90
71142;DHT22;58808;59.366;17.970;2023-04-24T01:49:10;7.60;99.90
71142;DHT22;58808;59.366;17.970;2023-04-24T01:51:36;7.60;99.90
71142;DHT22;58808;59.366;17.970;2023-04-24T01:54:02;7.60;99.90
71142;DHT22;58808;59.366;17.970;2023-04-24T01:56:33;7.50;99.90
71142;DHT22;58808;59.366;17.970;2023-04-24T01:59:03;7.50;99.90
71142;DHT22;58808;59.366;17.970;2023-04-24T02:01:36;7.40;99.90
71142;DHT22;58808;59.366;17.970;2023-04-24T02:04:03;7.40;99.90
71142;DHT22;58808;59.366;17.970;2023-04-24T02:06:29;7.50;99.90
71142;DHT22;58808;59.366;17.970;2023-04-24T02:08:59;7.50;99.90
71142;DHT22;58808;59.366;17.970;2023-04-24T02:11:26;7.40;99.90
71142;DHT22;58808;59.366;17.970;2023-04-24T02:13:52;7.30;99.90
71142;DHT22;58808;59.366;17.970;2023-04-24T02:16:18;7.30;99.90
71142;DHT22;58808;59.366;17.970;2023-04-24T02:18:44;7.30;99.90
71142;DHT22;58808;59.366;17.970;2023-04-24T02:21:10;7.30;99.90
71142;DHT22;58808;59.366;17.970;2023-04-24T02:23:36;7.30;99.90
71142;DHT22;58808;59.366;17.970;2023-04-24T02:26:02;7.30;99.90
71142;DHT22;58808;59.366;17.970;2023-04-24T02:28:27;7.20;99.90
71142;DHT22;58808;59.366;17.970;2023-04-24T02:30:53;7.10;99.90
71142;DHT22;58808;59.366;17.970;2023-04-24T02:33:19;7.10;99.90
71142;DHT22;58808;59.366;17.970;2023-04-24T02:35:45;7.10;99.90
71142;DHT22;58808;59.366;17.970;2023-04-24T02:38:11;6.90;99.90
71142;DHT22;58808;59.366;17.970;2023-04-24T02:40:36;6.90;99.90
71142;DHT22;58808;59.366;17.970;2023-04-24T02:43:02;7.00;99.90
71142;DHT22;58808;59.366;17.970;2023-04-24T02:45:28;7.00;99.90
71142;DHT22;58808;59.366;17.970;2023-04-24T02:47:53;6.80;99.90
71142;DHT22;58808;59.366;17.970;2023-04-24T02:50:19;6.70;99.90
71142;DHT22;58808;59.366;17.970;2023-04-24T02:52:45;6.80;99.90
71142;DHT22;58808;59.366;17.970;2023-04-24T02:55:10;6.80;99.90
71142;DHT22;58808;59.366;17.970;2023-04-24T02:57:36;6.80;99.90
71142;DHT22;58808;59.366;17.970;2023-04-24T03:00:02;6.80;99.90
71142;DHT22;58808;59.366;17.970;2023-04-24T03:02:28;6.80;99.90
71142;DHT22;58808;59.366;17.970;2023-04-24T03:04:54;6.90;99.90
71142;DHT22;58808;59.366;17.970;2023-04-24T03:07:20;6.80;99.90
71142;DHT22;58808;59.366;17.970;2023-04-24T03:09:46;6.80;99.90
71142;DHT22;58808;59.366;17.970;2023-04-24T03:12:13;6.80;99.90
71142;DHT22;58808;59.366;17.970;2023-04-24T03:14:38;6.70;99.90
71142;DHT22;58808;59.366;17.970;2023-04-24T03:17:04;6.70;99.90
71142;DHT22;58808;59.366;17.970;2023-04-24T03:19:30;6.70;99.90
71142;DHT22;58808;59.366;17.970;2023-04-24T03:21:56;6.60;99.90
71142;DHT22;58808;59.366;17.970;2023-04-24T03:24:21;6.50;99.90
71142;DHT22;58808;59.366;17.970;2023-04-24T03:26:47;6.60;99.90
71142;DHT22;58808;59.366;17.970;2023-04-24T03:29:13;6.60;99.90
71142;DHT22;58808;59.366;17.970;2023-04-24T03:31:39;6.40;99.90
71142;DHT22;58808;59.366;17.970;2023-04-24T03:34:04;6.40;99.90
71142;DHT22;58808;59.366;17.970;2023-04-24T03:36:30;6.40;99.90
71142;DHT22;58808;59.366;17.970;2023-04-24T03:38:57;6.50;99.90
71142;DHT22;58808;59.366;17.970;2023-04-24T03:41:22;6.50;99.90
71142;DHT22;58808;59.366;17.970;2023-04-24T03:43:48;6.40;99.90
71142;DHT22;58808;59.366;17.970;2023-04-24T03:46:14;6.40;99.90
71142;DHT22;58808;59.366;17.970;2023-04-24T03:48:40;6.50;99.90
71142;DHT22;58808;59.366;17.970;2023-04-24T03:51:06;6.30;99.90
71142;DHT22;58808;59.366;17.970;2023-04-24T03:53:31;6.40;99.90
71142;DHT22;58808;59.366;17.970;2023-04-24T03:55:57;6.40;99.90
71142;DHT22;58808;59.366;17.970;2023-04-24T03:58:23;6.40;99.90
71142;DHT22;58808;59.366;17.970;2023-04-24T04:00:49;6.40;99.90
71142;DHT22;58808;59.366;17.970;2023-04-24T04:03:15;6.40;99.90
71142;DHT22;58808;59.366;17.970;2023-04-24T04:05:41;6.40;99.90
71142;DHT22;58808;59.366;17.970;2023-04-24T04:08:07;6.30;99.90
71142;DHT22;58808;59.366;17.970;2023-04-24T04:10:33;6.40;99.90
71142;DHT22;58808;59.366;17.970;2023-04-24T04:12:58;6.50;99.90
71142;DHT22;58808;59.366;17.970;2023-04-24T04:15:26;6.60;99.90
71142;DHT22;58808;59.366;17.970;2023-04-24T04:17:52;6.60;99.90
71142;DHT22;58808;59.366;17.970;2023-04-24T04:20:18;6.50;99.90
71142;DHT22;58808;59.366;17.970;2023-04-24T04:22:43;6.40;99.90
71142;DHT22;58808;59.366;17.970;2023-04-24T04:25:09;6.40;99.90
71142;DHT22;58808;59.366;17.970;2023-04-24T04:27:35;6.40;99.90
71142;DHT22;58808;59.366;17.970;2023-04-24T04:30:02;6.40;99.90
71142;DHT22;58808;59.366;17.970;2023-04-24T04:32:31;6.50;99.90
71142;DHT22;58808;59.366;17.970;2023-04-24T04:34:59;6.50;99.90
71142;DHT22;58808;59.366;17.970;2023-04-24T04:37:31;6.50;99.90
71142;DHT22;58808;59.366;17.970;2023-04-24T04:39:59;6.50;99.90
71142;DHT22;58808;59.366;17.970;2023-04-24T04:42:25;6.50;99.90
71142;DHT22;58808;59.366;17.970;2023-04-24T04:44:52;6.50;99.90
71142;DHT22;58808;59.366;17.970;2023-04-24T04:47:21;6.30;99.90
71142;DHT22;58808;59.366;17.970;2023-04-24T04:49:50;6.30;99.90
71142;DHT22;58808;59.366;17.970;2023-04-24T04:52:17;6.40;99.90
71142;DHT22;58808;59.366;17.970;2023-04-24T04:54:44;6.40;99.90
71142;DHT22;58808;59.366;17.970;2023-04-24T04:57:10;6.40;99.90
71142;DHT22;58808;59.366;17.970;2023-04-24T04:59:36;6.30;99.90
71142;DHT22;58808;59.366;17.970;2023-04-24T05:02:02;6.20;99.90
71142;DHT22;58808;59.366;17.970;2023-04-24T05:04:28;6.30;99.90
71142;DHT22;58808;59.366;17.970;2023-04-24T05:06:54;6.30;99.90
71142;DHT22;58808;59.366;17.970;2023-04-24T05:09:19;6.30;99.90
71142;DHT22;58808;59.366;17.970;2023-04-24T05:11:45;6.30;99.90
71142;DHT22;58808;59.366;17.970;2023-04-24T05:14:11;6.30;99.90
71142;DHT22;58808;59.366;17.970;2023-04-24T05:16:38;6.20;99.90
71142;DHT22;58808;59.366;17.970;2023-04-24T05:19:04;6.20;99.90
71142;DHT22;58808;59.366;17.970;2023-04-24T05:21:30;6.10;99.90
71142;DHT22;58808;59.366;17.970;2023-04-24T05:23:56;6.10;99.90
71142;DHT22;58808;59.366;17.970;2023-04-24T05:26:22;6.00;99.90
71142;DHT22;58808;59.366;17.970;2023-04-24T05:28:48;6.00;99.90
71142;DHT22;58808;59.366;17.970;2023-04-24T05:31:14;5.90;99.90
71142;DHT22;58808;59.366;17.970;2023-04-24T05:33:39;5.90;99.90
71142;DHT22;58808;59.366;17.970;2023-04-24T05:36:06;5.90;99.90
71142;DHT22;58808;59.366;17.970;2023-04-24T05:38:32;5.90;99.90
71142;DHT22;58808;59.366;17.970;2023-04-24T05:40:57;5.90;99.90
71142;DHT22;58808;59.366;17.970;2023-04-24T05:43:23;5.90;99.90
71142;DHT22;58808;59.366;17.970;2023-04-24T05:45:49;5.70;99.90
71142;DHT22;58808;59.366;17.970;2023-04-24T05:48:15;5.70;99.90
71142;DHT22;58808;59.366;17.970;2023-04-24T05:50:42;5.80;99.90
71142;DHT22;58808;59.366;17.970;2023-04-24T05:53:07;5.80;99.90
71142;DHT22;58808;59.366;17.970;2023-04-24T05:55:36;5.90;99.90
71142;DHT22;58808;59.366;17.970;2023-04-24T05:58:01;5.90;99.90
71142;DHT22;58808;59.366;17.970;2023-04-24T06:00:27;5.90;99.90
71142;DHT22;58808;59.366;17.970;2023-04-24T06:02:54;5.90;99.90
71142;DHT22;58808;59.366;17.970;2023-04-24T06:05:19;6.00;99.90
71142;DHT22;58808;59.366;17.970;2023-04-24T06:07:45;6.00;99.90
71142;DHT22;58808;59.366;17.970;2023-04-24T06:10:11;6.00;99.90
71142;DHT22;58808;59.366;17.970;2023-04-24T06:12:37;6.00;99.90
71142;DHT22;58808;59.366;17.970;2023-04-24T06:15:03;5.80;99.90
71142;DHT22;58808;59.366;17.970;2023-04-24T06:17:29;5.80;99.90
71142;DHT22;58808;59.366;17.970;2023-04-24T06:19:56;5.80;99.90
71142;DHT22;58808;59.366;17.970;2023-04-24T06:22:21;5.80;99.90
71142;DHT22;58808;59.366;17.970;2023-04-24T06:24:47;5.80;99.90
71142;DHT22;58808;59.366;17.970;2023-04-24T06:27:14;5.80;99.90
71142;DHT22;58808;59.366;17.970;2023-04-24T06:29:39;5.90;99.90
71142;DHT22;58808;59.366;17.970;2023-04-24T06:32:05;5.80;99.90
71142;DHT22;58808;59.366;17.970;2023-04-24T06:34:31;5.80;99.90
71142;DHT22;58808;59.366;17.970;2023-04-24T06:36:58;5.80;99.90
71142;DHT22;58808;59.366;17.970;2023-04-24T06:39:24;5.90;99.90
71142;DHT22;58808;59.366;17.970;2023-04-24T06:41:49;5.70;99.90
71142;DHT22;58808;59.366;17.970;2023-04-24T06:44:15;5.80;99.90
71142;DHT22;58808;59.366;17.970;2023-04-24T06:46:42;5.80;99.90
71142;DHT22;58808;59.366;17.970;2023-04-24T06:49:07;5.80;99.90
71142;DHT22;58808;59.366;17.970;2023-04-24T06:51:33;5.90;99.90
71142;DHT22;58808;59.366;17.970;2023-04-24T06:53:59;5.90;99.90
71142;DHT22;58808;59.366;17.970;2023-04-24T06:56:26;5.70;99.90
71142;DHT22;58808;59.366;17.970;2023-04-24T06:58:52;5.80;99.90
71142;DHT22;58808;59.366;17.970;2023-04-24T07:01:18;5.70;99.90
71142;DHT22;58808;59.366;17.970;2023-04-24T07:03:44;5.80;99.90
71142;DHT22;58808;59.366;17.970;2023-04-24T07:06:10;5.70;99.90
71142;DHT22;58808;59.366;17.970;2023-04-24T07:08:39;5.80;99.90
71142;DHT22;58808;59.366;17.970;2023-04-24T07:11:07;5.90;99.90
71142;DHT22;58808;59.366;17.970;2023-04-24T07:13:32;5.90;99.90
71142;DHT22;58808;59.366;17.970;2023-04-24T07:16:00;6.00;99.90
71142;DHT22;58808;59.366;17.970;2023-04-24T07:18:26;6.00;99.90
71142;DHT22;58808;59.366;17.970;2023-04-24T07:20:52;5.90;99.90
71142;DHT22;58808;59.366;17.970;2023-04-24T07:23:18;5.90;99.90
71142;DHT22;58808;59.366;17.970;2023-04-24T07:25:44;5.90;99.90
71142;DHT22;58808;59.366;17.970;2023-04-24T07:28:10;5.90;99.90
71142;DHT22;58808;59.366;17.970;2023-04-24T07:30:35;5.90;99.90
71142;DHT22;58808;59.366;17.970;2023-04-24T07:33:01;6.00;99.90
71142;DHT22;58808;59.366;17.970;2023-04-24T07:35:27;5.90;99.90
71142;DHT22;58808;59.366;17.970;2023-04-24T07:37:53;5.80;99.90
71142;DHT22;58808;59.366;17.970;2023-04-24T07:40:19;5.90;99.90
71142;DHT22;58808;59.366;17.970;2023-04-24T07:42:45;5.90;99.90
71142;DHT22;58808;59.366;17.970;2023-04-24T07:45:10;5.90;99.90
71142;DHT22;58808;59.366;17.970;2023-04-24T07:47:36;5.90;99.90
71142;DHT22;58808;59.366;17.970;2023-04-24T07:50:03;5.90;99.90
71142;DHT22;58808;59.366;17.970;2023-04-24T07:52:29;5.90;99.90
71142;DHT22;58808;59.366;17.970;2023-04-24T07:54:56;5.90;99.90
71142;DHT22;58808;59.366;17.970;2023-04-24T07:57:25;6.00;99.90
71142;DHT22;58808;59.366;17.970;2023-04-24T07:59:51;6.00;99.90
71142;DHT22;58808;59.366;17.970;2023-04-24T08:02:17;6.10;99.90
71142;DHT22;58808;59.366;17.970;2023-04-24T08:04:43;6.10;99.90
71142;DHT22;58808;59.366;17.970;2023-04-24T08:07:08;6.20;99.90
71142;DHT22;58808;59.366;17.970;2023-04-24T08:09:34;6.20;99.90
71142;DHT22;58808;59.366;17.970;2023-04-24T08:12:00;6.20;99.90
71142;DHT22;58808;59.366;17.970;2023-04-24T08:14:26;6.20;99.90
71142;DHT22;58808;59.366;17.970;2023-04-24T08:16:54;6.20;99.90
71142;DHT22;58808;59.366;17.970;2023-04-24T08:19:21;6.20;99.90
71142;DHT22;58808;59.366;17.970;2023-04-24T08:21:47;6.20;99.90
71142;DHT22;58808;59.366;17.970;2023-04-24T08:24:13;6.20;99.90
71142;DHT22;58808;59.366;17.970;2023-04-24T08:26:39;6.30;99.90
71142;DHT22;58808;59.366;17.970;2023-04-24T08:29:05;6.30;99.90
71142;DHT22;58808;59.366;17.970;2023-04-24T08:31:32;6.30;99.90
71142;DHT22;58808;59.366;17.970;2023-04-24T08:33:58;6.30;99.90
71142;DHT22;58808;59.366;17.970;2023-04-24T08:36:25;6.20;99.90
71142;DHT22;58808;59.366;17.970;2023-04-24T08:38:51;6.10;99.90
71142;DHT22;58808;59.366;17.970;2023-04-24T08:41:18;6.10;99.90
71142;DHT22;58808;59.366;17.970;2023-04-24T08:43:46;6.20;99.90
71142;DHT22;58808;59.366;17.970;2023-04-24T08:46:13;6.30;99.90
71142;DHT22;58808;59.366;17.970;2023-04-24T08:48:39;6.30;99.90
71142;DHT22;58808;59.366;17.970;2023-04-24T08:51:09;6.30;99.90
71142;DHT22;58808;59.366;17.970;2023-04-24T08:53:35;6.30;99.90
71142;DHT22;58808;59.366;17.970;2023-04-24T08:56:02;6.30;99.90
71142;DHT22;58808;59.366;17.970;2023-04-24T08:58:28;6.40;99.90
71142;DHT22;58808;59.366;17.970;2023-04-24T09:00:55;6.40;99.90
71142;DHT22;58808;59.366;17.970;2023-04-24T09:03:21;6.40;99.90
71142;DHT22;58808;59.366;17.970;2023-04-24T09:05:49;6.40;99.90
71142;DHT22;58808;59.366;17.970;2023-04-24T09:08:17;6.50;99.90
71142;DHT22;58808;59.366;17.970;2023-04-24T09:10:43;6.40;99.90
71142;DHT22;58808;59.366;17.970;2023-04-24T09:13:09;6.40;99.90
71142;DHT22;58808;59.366;17.970;2023-04-24T09:15:36;6.40;99.90
71142;DHT22;58808;59.366;17.970;2023-04-24T09:18:04;6.40;99.90
71142;DHT22;58808;59.366;17.970;2023-04-24T09:20:30;6.40;99.90
71142;DHT22;58808;59.366;17.970;2023-04-24T09:22:59;6.50;99.90
71142;DHT22;58808;59.366;17.970;2023-04-24T09:25:32;6.40;99.90
71142;DHT22;58808;59.366;17.970;2023-04-24T09:28:03;6.50;99.90
71142;DHT22;58808;59.366;17.970;2023-04-24T09:30:30;6.50;99.90
71142;DHT22;58808;59.366;17.970;2023-04-24T09:33:25;6.50;99.90
71142;DHT22;58808;59.366;17.970;2023-04-24T09:35:51;6.40;99.90
71142;DHT22;58808;59.366;17.970;2023-04-24T09:38:17;6.30;99.90
71142;DHT22;58808;59.366;17.970;2023-04-24T09:40:43;6.40;99.90
71142;DHT22;58808;59.366;17.970;2023-04-24T09:43:12;6.40;99.90
71142;DHT22;58808;59.366;17.970;2023-04-24T09:45:39;6.40;99.90
71142;DHT22;58808;59.366;17.970;2023-04-24T09:48:08;6.40;99.90
71142;DHT22;58808;59.366;17.970;2023-04-24T09:50:34;6.50;99.90
71142;DHT22;58808;59.366;17.970;2023-04-24T09:53:04;6.50;99.90
71142;DHT22;58808;59.366;17.970;2023-04-24T09:55:31;6.60;99.90
71142;DHT22;58808;59.366;17.970;2023-04-24T09:58:00;6.50;99.90
71142;DHT22;58808;59.366;17.970;2023-04-24T10:00:31;6.60;99.90
71142;DHT22;58808;59.366;17.970;2023-04-24T10:02:59;6.60;99.90
71142;DHT22;58808;59.366;17.970;2023-04-24T10:05:31;6.60;99.90
71142;DHT22;58808;59.366;17.970;2023-04-24T10:08:11;6.60;99.90
71142;DHT22;58808;59.366;17.970;2023-04-24T10:10:42;6.60;99.90
71142;DHT22;58808;59.366;17.970;2023-04-24T10:13:12;6.70;99.90
71142;DHT22;58808;59.366;17.970;2023-04-24T10:15:39;6.70;99.90
71142;DHT22;58808;59.366;17.970;2023-04-24T10:18:06;6.70;99.90
71142;DHT22;58808;59.366;17.970;2023-04-24T10:20:33;6.70;99.90
71142;DHT22;58808;59.366;17.970;2023-04-24T10:23:00;6.60;99.90
71142;DHT22;58808;59.366;17.970;2023-04-24T10:25:28;6.70;99.90
71142;DHT22;58808;59.366;17.970;2023-04-24T10:27:54;6.70;99.90
71142;DHT22;58808;59.366;17.970;2023-04-24T10:30:35;6.70;99.90
71142;DHT22;58808;59.366;17.970;2023-04-24T10:33:02;6.80;99.90
71142;DHT22;58808;59.366;17.970;2023-04-24T10:35:31;6.80;99.90
71142;DHT22;58808;59.366;17.970;2023-04-24T10:38:12;6.80;99.90
71142;DHT22;58808;59.366;17.970;2023-04-24T10:40:38;6.80;99.90
71142;DHT22;58808;59.366;17.970;2023-04-24T10:43:05;6.90;99.90
71142;DHT22;58808;59.366;17.970;2023-04-24T10:45:33;6.90;99.90
71142;DHT22;58808;59.366;17.970;2023-04-24T10:48:04;7.00;99.90
71142;DHT22;58808;59.366;17.970;2023-04-24T10:50:51;7.00;99.90
71142;DHT22;58808;59.366;17.970;2023-04-24T10:53:22;7.00;99.90
71142;DHT22;58808;59.366;17.970;2023-04-24T10:56:09;7.00;99.90
71142;DHT22;58808;59.366;17.970;2023-04-24T10:58:43;7.00;99.90
71142;DHT22;58808;59.366;17.970;2023-04-24T11:01:33;7.00;99.90
71142;DHT22;58808;59.366;17.970;2023-04-24T11:04:01;7.00;99.90
71142;DHT22;58808;59.366;17.970;2023-04-24T11:06:34;7.10;99.90
71142;DHT22;58808;59.366;17.970;2023-04-24T11:09:07;7.10;99.90
71142;DHT22;58808;59.366;17.970;2023-04-24T11:11:35;7.10;99.90
71142;DHT22;58808;59.366;17.970;2023-04-24T11:14:05;7.10;99.90
71142;DHT22;58808;59.366;17.970;2023-04-24T11:16:43;7.10;99.90
71142;DHT22;58808;59.366;17.970;2023-04-24T11:22:04;7.10;99.90
71142;DHT22;58808;59.366;17.970;2023-04-24T11:24:40;7.10;99.90
71142;DHT22;58808;59.366;17.970;2023-04-24T11:27:12;7.10;99.90
71142;DHT22;58808;59.366;17.970;2023-04-24T11:29:40;7.00;99.90
71142;DHT22;58808;59.366;17.970;2023-04-24T11:32:17;6.90;99.90
71142;DHT22;58808;59.366;17.970;2023-04-24T11:34:50;6.90;99.90
71142;DHT22;58808;59.366;17.970;2023-04-24T11:37:17;6.90;99.90
71142;DHT22;58808;59.366;17.970;2023-04-24T11:39:42;6.80;99.90
71142;DHT22;58808;59.366;17.970;2023-04-24T11:42:14;6.90;99.90
71142;DHT22;58808;59.366;17.970;2023-04-24T11:44:42;6.90;99.90
71142;DHT22;58808;59.366;17.970;2023-04-24T11:47:08;6.90;99.90
71142;DHT22;58808;59.366;17.970;2023-04-24T11:49:36;6.80;99.90
71142;DHT22;58808;59.366;17.970;2023-04-24T11:52:02;6.80;99.90
71142;DHT22;58808;59.366;17.970;2023-04-24T11:54:28;6.80;99.90
71142;DHT22;58808;59.366;17.970;2023-04-24T11:56:56;6.80;99.90
71142;DHT22;58808;59.366;17.970;2023-04-24T11:59:21;6.80;99.90
71142;DHT22;58808;59.366;17.970;2023-04-24T12:01:48;6.80;99.90
71142;DHT22;58808;59.366;17.970;2023-04-24T12:04:16;6.80;99.90
71142;DHT22;58808;59.366;17.970;2023-04-24T12:07:03;6.70;99.90
71142;DHT22;58808;59.366;17.970;2023-04-24T12:12:13;6.70;99.90
71142;DHT22;58808;59.366;17.970;2023-04-24T12:14:49;6.70;99.90
71142;DHT22;58808;59.366;17.970;2023-04-24T12:17:16;6.70;99.90
71142;DHT22;58808;59.366;17.970;2023-04-24T12:19:46;6.60;99.90
71142;DHT22;58808;59.366;17.970;2023-04-24T12:22:12;6.60;99.90
71142;DHT22;58808;59.366;17.970;2023-04-24T12:25:02;6.70;99.90
71142;DHT22;58808;59.366;17.970;2023-04-24T12:27:34;6.70;99.90
71142;DHT22;58808;59.366;17.970;2023-04-24T12:30:03;6.70;99.90
71142;DHT22;58808;59.366;17.970;2023-04-24T12:32:29;6.70;99.90
71142;DHT22;58808;59.366;17.970;2023-04-24T12:34:55;6.80;99.90
71142;DHT22;58808;59.366;17.970;2023-04-24T12:37:26;6.80;99.90
71142;DHT22;58808;59.366;17.970;2023-04-24T12:40:19;6.80;99.90
71142;DHT22;58808;59.366;17.970;2023-04-24T12:42:49;6.80;99.90
71142;DHT22;58808;59.366;17.970;2023-04-24T12:45:16;6.80;99.90
71142;DHT22;58808;59.366;17.970;2023-04-24T12:47:44;6.80;99.90
71142;DHT22;58808;59.366;17.970;2023-04-24T12:50:12;6.80;99.90
71142;DHT22;58808;59.366;17.970;2023-04-24T12:52:38;6.80;99.90
71142;DHT22;58808;59.366;17.970;2023-04-24T12:55:05;6.80;99.90
71142;DHT22;58808;59.366;17.970;2023-04-24T12:57:34;6.80;99.90
71142;DHT22;58808;59.366;17.970;2023-04-24T13:00:01;6.80;99.90
71142;DHT22;58808;59.366;17.970;2023-04-24T13:02:28;6.80;99.90
71142;DHT22;58808;59.366;17.970;2023-04-24T13:04:57;6.90;99.90
71142;DHT22;58808;59.366;17.970;2023-04-24T13:07:23;6.90;99.90
71142;DHT22;58808;59.366;17.970;2023-04-24T13:09:50;6.80;99.90
71142;DHT22;58808;59.366;17.970;2023-04-24T13:12:16;6.70;99.90
71142;DHT22;58808;59.366;17.970;2023-04-24T13:14:42;6.70;99.90
71142;DHT22;58808;59.366;17.970;2023-04-24T13:17:08;6.60;99.90
71142;DHT22;58808;59.366;17.970;2023-04-24T13:19:39;6.70;99.90
71142;DHT22;58808;59.366;17.970;2023-04-24T13:22:05;6.70;99.90
71142;DHT22;58808;59.366;17.970;2023-04-24T13:24:32;6.60;99.90
71142;DHT22;58808;59.366;17.970;2023-04-24T13:26:58;6.60;99.90
71142;DHT22;58808;59.366;17.970;2023-04-24T13:29:24;6.50;99.90
71142;DHT22;58808;59.366;17.970;2023-04-24T13:31:50;6.50;99.90
71142;DHT22;58808;59.366;17.970;2023-04-24T13:34:17;6.50;99.90
71142;DHT22;58808;59.366;17.970;2023-04-24T13:36:43;6.40;99.90
71142;DHT22;58808;59.366;17.970;2023-04-24T13:39:09;6.40;99.90
71142;DHT22;58808;59.366;17.970;2023-04-24T13:41:36;6.40;99.90
71142;DHT22;58808;59.366;17.970;2023-04-24T13:44:02;6.50;99.90
71142;DHT22;58808;59.366;17.970;2023-04-24T13:46:28;6.40;99.90
71142;DHT22;58808;59.366;17.970;2023-04-24T13:48:55;6.30;99.90
71142;DHT22;58808;59.366;17.970;2023-04-24T13:51:20;6.30;99.90
71142;DHT22;58808;59.366;17.970;2023-04-24T13:53:46;6.30;99.90
71142;DHT22;58808;59.366;17.970;2023-04-24T13:56:12;6.30;99.90
71142;DHT22;58808;59.366;17.970;2023-04-24T13:58:39;6.30;99.90
71142;DHT22;58808;59.366;17.970;2023-04-24T14:01:05;6.30;99.90
71142;DHT22;58808;59.366;17.970;2023-04-24T14:03:31;6.20;99.90
71142;DHT22;58808;59.366;17.970;2023-04-24T14:05:56;6.20;99.90
71142;DHT22;58808;59.366;17.970;2023-04-24T14:08:23;6.20;99.90
71142;DHT22;58808;59.366;17.970;2023-04-24T14:10:50;6.20;99.90
71142;DHT22;58808;59.366;17.970;2023-04-24T14:13:16;6.10;99.90
71142;DHT22;58808;59.366;17.970;2023-04-24T14:15:42;6.10;99.90
71142;DHT22;58808;59.366;17.970;2023-04-24T14:18:08;6.10;99.90
71142;DHT22;58808;59.366;17.970;2023-04-24T14:20:33;6.10;99.90
71142;DHT22;58808;59.366;17.970;2023-04-24T14:22:59;5.90;99.90
71142;DHT22;58808;59.366;17.970;2023-04-24T14:25:25;5.90;99.90
71142;DHT22;58808;59.366;17.970;2023-04-24T14:27:51;5.80;99.90
71142;DHT22;58808;59.366;17.970;2023-04-24T14:30:17;5.90;99.90
71142;DHT22;58808;59.366;17.970;2023-04-24T14:32:43;5.80;99.90
71142;DHT22;58808;59.366;17.970;2023-04-24T14:35:09;5.90;99.90
71142;DHT22;58808;59.366;17.970;2023-04-24T14:37:35;5.90;99.90
71142;DHT22;58808;59.366;17.970;2023-04-24T14:40:02;6.00;99.90
71142;DHT22;58808;59.366;17.970;2023-04-24T14:42:29;6.00;99.90
71142;DHT22;58808;59.366;17.970;2023-04-24T14:44:55;5.90;99.90
71142;DHT22;58808;59.366;17.970;2023-04-24T14:47:21;6.00;99.90
71142;DHT22;58808;59.366;17.970;2023-04-24T14:49:48;6.00;99.90
71142;DHT22;58808;59.366;17.970;2023-04-24T14:52:14;6.00;99.90
71142;DHT22;58808;59.366;17.970;2023-04-24T14:54:40;5.90;99.90
71142;DHT22;58808;59.366;17.970;2023-04-24T14:57:05;5.80;99.90
71142;DHT22;58808;59.366;17.970;2023-04-24T14:59:31;5.80;99.90
71142;DHT22;58808;59.366;17.970;2023-04-24T15:01:57;5.90;99.90
71142;DHT22;58808;59.366;17.970;2023-04-24T15:04:27;5.90;99.90
71142;DHT22;58808;59.366;17.970;2023-04-24T15:06:54;5.90;99.90
71142;DHT22;58808;59.366;17.970;2023-04-24T15:09:24;6.00;99.90
71142;DHT22;58808;59.366;17.970;2023-04-24T15:11:52;6.00;99.90
71142;DHT22;58808;59.366;17.970;2023-04-24T15:14:18;6.00;99.90
71142;DHT22;58808;59.366;17.970;2023-04-24T15:16:44;5.90;99.90
71142;DHT22;58808;59.366;17.970;2023-04-24T15:19:10;5.90;99.90
71142;DHT22;58808;59.366;17.970;2023-04-24T15:21:37;5.70;99.90
71142;DHT22;58808;59.366;17.970;2023-04-24T15:24:03;5.70;99.90
71142;DHT22;58808;59.366;17.970;2023-04-24T15:26:29;5.70;99.90
71142;DHT22;58808;59.366;17.970;2023-04-24T15:28:55;5.70;99.90
71142;DHT22;58808;59.366;17.970;2023-04-24T15:31:21;5.60;99.90
71142;DHT22;58808;59.366;17.970;2023-04-24T15:33:48;5.60;99.90
71142;DHT22;58808;59.366;17.970;2023-04-24T15:36:15;5.60;99.90